sensor_id;sensor_type;location;lat;lon;timestamp;P1;P2;P0
45440;PMS5003;31189;38.790;-77.084;2023-11-19T00:00:31;4;4;
45440;PMS5003;31189;38.790;-77.084;2023-11-19T00:02:57;5;3;
45440;PMS5003;31189;38.790;-77.084;2023-11-19T00:05:23;3;3;
45440;PMS5003;31189;38.790;-77.084;2023-11-19T00:07:48;3;3;
45440;PMS5003;31189;38.790;-77.084;2023-11-19T00:10:14;5;3;
45440;PMS5003;31189;38.790;-77.084;2023-11-19T00:12:40;5;5;
45440;PMS5003;31189;38.790;-77.084;2023-11-19T00:15:06;5;4;
45440;PMS5003;31189;38.790;-77.084;2023-11-19T00:17:31;4;4;
45440;PMS5003;31189;38.790;-77.084;2023-11-19T00:19:57;5;3;
45440;PMS5003;31189;38.790;-77.084;2023-11-19T00:22:22;5;3;
45440;PMS5003;31189;38.790;-77.084;2023-11-19T00:24:48;8;6;
45440;PMS5003;31189;38.790;-77.084;2023-11-19T00:27:14;6;3;
45440;PMS5003;31189;38.790;-77.084;2023-11-19T00:29:39;3;3;
45440;PMS5003;31189;38.790;-77.084;2023-11-19T00:32:05;5;4;
45440;PMS5003;31189;38.790;-77.084;2023-11-19T00:34:31;2;2;
45440;PMS5003;31189;38.790;-77.084;2023-11-19T00:36:57;5;4;
45440;PMS5003;31189;38.790;-77.084;2023-11-19T00:39:22;3;3;
45440;PMS5003;31189;38.790;-77.084;2023-11-19T00:41:48;5;4;
45440;PMS5003;31189;38.790;-77.084;2023-11-19T00:44:13;4;4;
45440;PMS5003;31189;38.790;-77.084;2023-11-19T00:46:39;6;4;
45440;PMS5003;31189;38.790;-77.084;2023-11-19T00:49:05;4;4;
45440;PMS5003;31189;38.790;-77.084;2023-11-19T00:51:30;5;5;
45440;PMS5003;31189;38.790;-77.084;2023-11-19T00:53:56;6;5;
45440;PMS5003;31189;38.790;-77.084;2023-11-19T00:56:21;5;5;
45440;PMS5003;31189;38.790;-77.084;2023-11-19T00:58:47;6;5;
45440;PMS5003;31189;38.790;-77.084;2023-11-19T01:01:13;3;3;
45440;PMS5003;31189;38.790;-77.084;2023-11-19T01:03:38;6;5;
45440;PMS5003;31189;38.790;-77.084;2023-11-19T01:06:04;6;3;
45440;PMS5003;31189;38.790;-77.084;2023-11-19T01:08:30;5;3;
45440;PMS5003;31189;38.790;-77.084;2023-11-19T01:10:55;5;5;
45440;PMS5003;31189;38.790;-77.084;2023-11-19T01:13:21;5;4;
45440;PMS5003;31189;38.790;-77.084;2023-11-19T01:15:47;6;4;
45440;PMS5003;31189;38.790;-77.084;2023-11-19T01:18:12;6;5;
45440;PMS5003;31189;38.790;-77.084;2023-11-19T01:20:38;5;5;
45440;PMS5003;31189;38.790;-77.084;2023-11-19T01:23:04;4;4;
45440;PMS5003;31189;38.790;-77.084;2023-11-19T01:25:29;3;3;
45440;PMS5003;31189;38.790;-77.084;2023-11-19T01:27:55;4;3;
45440;PMS5003;31189;38.790;-77.084;2023-11-19T01:30:21;3;3;
45440;PMS5003;31189;38.790;-77.084;2023-11-19T01:32:46;5;4;
45440;PMS5003;31189;38.790;-77.084;2023-11-19T01:35:12;4;4;
45440;PMS5003;31189;38.790;-77.084;2023-11-19T01:37:38;4;4;
45440;PMS5003;31189;38.790;-77.084;2023-11-19T01:40:04;5;4;
45440;PMS5003;31189;38.790;-77.084;2023-11-19T01:42:29;3;3;
45440;PMS5003;31189;38.790;-77.084;2023-11-19T01:44:55;4;3;
45440;PMS5003;31189;38.790;-77.084;2023-11-19T01:47:20;5;5;
45440;PMS5003;31189;38.790;-77.084;2023-11-19T01:49:46;6;4;
45440;PMS5003;31189;38.790;-77.084;2023-11-19T01:52:11;3;3;
45440;PMS5003;31189;38.790;-77.084;2023-11-19T01:54:37;5;5;
45440;PMS5003;31189;38.790;-77.084;2023-11-19T01:57:03;3;3;
45440;PMS5003;31189;38.790;-77.084;2023-11-19T01:59:28;4;4;
45440;PMS5003;31189;38.790;-77.084;2023-11-19T02:01:54;6;5;
45440;PMS5003;31189;38.790;-77.084;2023-11-19T02:04:20;3;3;
45440;PMS5003;31189;38.790;-77.084;2023-11-19T02:06:45;4;4;
45440;PMS5003;31189;38.790;-77.084;2023-11-19T02:09:11;4;3;
45440;PMS5003;31189;38.790;-77.084;2023-11-19T02:11:37;7;5;
45440;PMS5003;31189;38.790;-77.084;2023-11-19T02:14:02;4;4;
45440;PMS5003;31189;38.790;-77.084;2023-11-19T02:16:28;1;1;
45440;PMS5003;31189;38.790;-77.084;2023-11-19T02:18:54;3;3;
45440;PMS5003;31189;38.790;-77.084;2023-11-19T02:21:19;6;4;
45440;PMS5003;31189;38.790;-77.084;2023-11-19T02:23:45;5;4;
45440;PMS5003;31189;38.790;-77.084;2023-11-19T02:26:13;6;5;
45440;PMS5003;31189;38.790;-77.084;2023-11-19T02:28:36;3;3;
45440;PMS5003;31189;38.790;-77.084;2023-11-19T02:31:02;5;4;
45440;PMS5003;31189;38.790;-77.084;2023-11-19T02:33:28;3;3;
45440;PMS5003;31189;38.790;-77.084;2023-11-19T02:35:53;3;3;
45440;PMS5003;31189;38.790;-77.084;2023-11-19T02:38:19;4;4;
45440;PMS5003;31189;38.790;-77.084;2023-11-19T02:40:45;3;3;
45440;PMS5003;31189;38.790;-77.084;2023-11-19T02:43:10;3;3;
45440;PMS5003;31189;38.790;-77.084;2023-11-19T02:45:36;6;4;
45440;PMS5003;31189;38.790;-77.084;2023-11-19T02:48:02;6;4;
45440;PMS5003;31189;38.790;-77.084;2023-11-19T02:50:27;3;3;
45440;PMS5003;31189;38.790;-77.084;2023-11-19T02:52:54;4;4;
45440;PMS5003;31189;38.790;-77.084;2023-11-19T02:55:19;2;2;
45440;PMS5003;31189;38.790;-77.084;2023-11-19T02:57:44;4;4;
45440;PMS5003;31189;38.790;-77.084;2023-11-19T03:00:10;5;4;
45440;PMS5003;31189;38.790;-77.084;2023-11-19T03:02:36;6;4;
45440;PMS5003;31189;38.790;-77.084;2023-11-19T03:05:01;5;4;
45440;PMS5003;31189;38.790;-77.084;2023-11-19T03:07:27;4;4;
45440;PMS5003;31189;38.790;-77.084;2023-11-19T03:09:53;2;1;
45440;PMS5003;31189;38.790;-77.084;2023-11-19T03:12:18;5;4;
45440;PMS5003;31189;38.790;-77.084;2023-11-19T03:14:44;2;2;
45440;PMS5003;31189;38.790;-77.084;2023-11-19T03:17:10;4;4;
45440;PMS5003;31189;38.790;-77.084;2023-11-19T03:19:35;3;2;
45440;PMS5003;31189;38.790;-77.084;2023-11-19T03:22:01;4;4;
45440;PMS5003;31189;38.790;-77.084;2023-11-19T03:24:27;4;4;
45440;PMS5003;31189;38.790;-77.084;2023-11-19T03:26:52;3;3;
45440;PMS5003;31189;38.790;-77.084;2023-11-19T03:29:18;3;3;
45440;PMS5003;31189;38.790;-77.084;2023-11-19T03:31:44;6;4;
45440;PMS5003;31189;38.790;-77.084;2023-11-19T03:34:09;5;5;
45440;PMS5003;31189;38.790;-77.084;2023-11-19T03:36:35;3;3;
45440;PMS5003;31189;38.790;-77.084;2023-11-19T03:39:00;3;3;
45440;PMS5003;31189;38.790;-77.084;2023-11-19T03:41:26;6;4;
45440;PMS5003;31189;38.790;-77.084;2023-11-19T03:43:52;3;3;
45440;PMS5003;31189;38.790;-77.084;2023-11-19T03:46:18;5;5;
45440;PMS5003;31189;38.790;-77.084;2023-11-19T03:48:43;4;3;
45440;PMS5003;31189;38.790;-77.084;2023-11-19T03:51:09;3;3;
45440;PMS5003;31189;38.790;-77.084;2023-11-19T03:53:35;5;4;
45440;PMS5003;31189;38.790;-77.084;2023-11-19T03:56:00;4;3;
45440;PMS5003;31189;38.790;-77.084;2023-11-19T03:58:26;4;4;
45440;PMS5003;31189;38.790;-77.084;2023-11-19T04:00:51;6;5;
45440;PMS5003;31189;38.790;-77.084;2023-11-19T04:03:17;3;2;
45440;PMS5003;31189;38.790;-77.084;2023-11-19T04:05:43;4;3;
45440;PMS5003;31189;38.790;-77.084;2023-11-19T04:08:09;6;4;
45440;PMS5003;31189;38.790;-77.084;2023-11-19T04:10:34;5;4;
45440;PMS5003;31189;38.790;-77.084;2023-11-19T04:13:00;5;4;
45440;PMS5003;31189;38.790;-77.084;2023-11-19T04:15:25;4;4;
45440;PMS5003;31189;38.790;-77.084;2023-11-19T04:17:51;6;4;
45440;PMS5003;31189;38.790;-77.084;2023-11-19T04:20:17;4;4;
45440;PMS5003;31189;38.790;-77.084;2023-11-19T04:22:42;3;3;
45440;PMS5003;31189;38.790;-77.084;2023-11-19T04:25:08;4;4;
45440;PMS5003;31189;38.790;-77.084;2023-11-19T04:27:34;4;4;
45440;PMS5003;31189;38.790;-77.084;2023-11-19T04:30:00;5;5;
45440;PMS5003;31189;38.790;-77.084;2023-11-19T04:32:25;3;3;
45440;PMS5003;31189;38.790;-77.084;2023-11-19T04:34:51;6;4;
45440;PMS5003;31189;38.790;-77.084;2023-11-19T04:37:16;3;2;
45440;PMS5003;31189;38.790;-77.084;2023-11-19T04:39:44;7;4;
45440;PMS5003;31189;38.790;-77.084;2023-11-19T04:42:08;8;6;
45440;PMS5003;31189;38.790;-77.084;2023-11-19T04:44:33;4;4;
45440;PMS5003;31189;38.790;-77.084;2023-11-19T04:46:59;5;4;
45440;PMS5003;31189;38.790;-77.084;2023-11-19T04:49:25;5;4;
45440;PMS5003;31189;38.790;-77.084;2023-11-19T04:51:51;3;3;
45440;PMS5003;31189;38.790;-77.084;2023-11-19T04:54:16;2;2;
45440;PMS5003;31189;38.790;-77.084;2023-11-19T04:56:45;4;4;
45440;PMS5003;31189;38.790;-77.084;2023-11-19T04:59:07;4;4;
45440;PMS5003;31189;38.790;-77.084;2023-11-19T05:01:33;4;4;
45440;PMS5003;31189;38.790;-77.084;2023-11-19T05:03:59;4;4;
45440;PMS5003;31189;38.790;-77.084;2023-11-19T05:06:25;4;4;
45440;PMS5003;31189;38.790;-77.084;2023-11-19T05:08:50;5;4;
45440;PMS5003;31189;38.790;-77.084;2023-11-19T05:11:16;4;4;
45440;PMS5003;31189;38.790;-77.084;2023-11-19T05:13:42;4;3;
45440;PMS5003;31189;38.790;-77.084;2023-11-19T05:16:07;5;3;
45440;PMS5003;31189;38.790;-77.084;2023-11-19T05:18:33;6;4;
45440;PMS5003;31189;38.790;-77.084;2023-11-19T05:20:59;6;6;
45440;PMS5003;31189;38.790;-77.084;2023-11-19T05:23:24;4;4;
45440;PMS5003;31189;38.790;-77.084;2023-11-19T05:25:50;5;4;
45440;PMS5003;31189;38.790;-77.084;2023-11-19T05:28:15;5;5;
45440;PMS5003;31189;38.790;-77.084;2023-11-19T05:30:41;5;3;
45440;PMS5003;31189;38.790;-77.084;2023-11-19T05:33:07;4;4;
45440;PMS5003;31189;38.790;-77.084;2023-11-19T05:35:33;2;2;
45440;PMS5003;31189;38.790;-77.084;2023-11-19T05:37:58;3;3;
45440;PMS5003;31189;38.790;-77.084;2023-11-19T05:40:24;4;4;
45440;PMS5003;31189;38.790;-77.084;2023-11-19T05:42:49;3;3;
45440;PMS5003;31189;38.790;-77.084;2023-11-19T05:45:15;3;3;
45440;PMS5003;31189;38.790;-77.084;2023-11-19T05:47:41;4;4;
45440;PMS5003;31189;38.790;-77.084;2023-11-19T05:50:07;6;6;
45440;PMS5003;31189;38.790;-77.084;2023-11-19T05:52:32;5;5;
45440;PMS5003;31189;38.790;-77.084;2023-11-19T05:54:58;4;4;
45440;PMS5003;31189;38.790;-77.084;2023-11-19T05:57:24;6;6;
45440;PMS5003;31189;38.790;-77.084;2023-11-19T05:59:49;7;3;
45440;PMS5003;31189;38.790;-77.084;2023-11-19T06:02:15;8;7;
45440;PMS5003;31189;38.790;-77.084;2023-11-19T06:04:40;8;5;
45440;PMS5003;31189;38.790;-77.084;2023-11-19T06:07:06;12;8;
45440;PMS5003;31189;38.790;-77.084;2023-11-19T06:09:32;11;9;
45440;PMS5003;31189;38.790;-77.084;2023-11-19T06:11:57;6;6;
45440;PMS5003;31189;38.790;-77.084;2023-11-19T06:14:23;6;6;
45440;PMS5003;31189;38.790;-77.084;2023-11-19T06:16:49;8;5;
45440;PMS5003;31189;38.790;-77.084;2023-11-19T06:19:15;7;6;
45440;PMS5003;31189;38.790;-77.084;2023-11-19T06:21:40;8;8;
45440;PMS5003;31189;38.790;-77.084;2023-11-19T06:24:06;9;7;
45440;PMS5003;31189;38.790;-77.084;2023-11-19T06:26:32;5;5;
45440;PMS5003;31189;38.790;-77.084;2023-11-19T06:28:57;8;7;
45440;PMS5003;31189;38.790;-77.084;2023-11-19T06:31:23;6;6;
45440;PMS5003;31189;38.790;-77.084;2023-11-19T06:33:48;7;6;
45440;PMS5003;31189;38.790;-77.084;2023-11-19T06:36:14;6;6;
45440;PMS5003;31189;38.790;-77.084;2023-11-19T06:38:40;9;8;
45440;PMS5003;31189;38.790;-77.084;2023-11-19T06:41:07;12;9;
45440;PMS5003;31189;38.790;-77.084;2023-11-19T06:43:31;8;7;
45440;PMS5003;31189;38.790;-77.084;2023-11-19T06:45:57;8;8;
45440;PMS5003;31189;38.790;-77.084;2023-11-19T06:48:23;10;9;
45440;PMS5003;31189;38.790;-77.084;2023-11-19T06:50:48;10;7;
45440;PMS5003;31189;38.790;-77.084;2023-11-19T06:53:14;9;7;
45440;PMS5003;31189;38.790;-77.084;2023-11-19T06:55:40;7;5;
45440;PMS5003;31189;38.790;-77.084;2023-11-19T06:58:05;12;8;
45440;PMS5003;31189;38.790;-77.084;2023-11-19T07:00:31;11;10;
45440;PMS5003;31189;38.790;-77.084;2023-11-19T07:02:56;17;9;
45440;PMS5003;31189;38.790;-77.084;2023-11-19T07:05:22;9;9;
45440;PMS5003;31189;38.790;-77.084;2023-11-19T07:07:47;13;12;
45440;PMS5003;31189;38.790;-77.084;2023-11-19T07:10:13;10;9;
45440;PMS5003;31189;38.790;-77.084;2023-11-19T07:12:38;11;10;
45440;PMS5003;31189;38.790;-77.084;2023-11-19T07:15:04;14;11;
45440;PMS5003;31189;38.790;-77.084;2023-11-19T07:17:29;25;13;
45440;PMS5003;31189;38.790;-77.084;2023-11-19T07:19:55;14;12;
45440;PMS5003;31189;38.790;-77.084;2023-11-19T07:22:20;12;12;
45440;PMS5003;31189;38.790;-77.084;2023-11-19T07:24:46;12;10;
45440;PMS5003;31189;38.790;-77.084;2023-11-19T07:27:11;15;13;
45440;PMS5003;31189;38.790;-77.084;2023-11-19T07:29:36;14;11;
45440;PMS5003;31189;38.790;-77.084;2023-11-19T07:32:02;14;10;
45440;PMS5003;31189;38.790;-77.084;2023-11-19T07:34:27;14;10;
45440;PMS5003;31189;38.790;-77.084;2023-11-19T07:36:53;11;9;
45440;PMS5003;31189;38.790;-77.084;2023-11-19T07:39:19;13;12;
45440;PMS5003;31189;38.790;-77.084;2023-11-19T07:41:44;14;10;
45440;PMS5003;31189;38.790;-77.084;2023-11-19T07:44:10;11;8;
45440;PMS5003;31189;38.790;-77.084;2023-11-19T07:46:36;11;11;
45440;PMS5003;31189;38.790;-77.084;2023-11-19T07:49:01;9;8;
45440;PMS5003;31189;38.790;-77.084;2023-11-19T07:51:26;19;10;
45440;PMS5003;31189;38.790;-77.084;2023-11-19T07:53:52;12;10;
45440;PMS5003;31189;38.790;-77.084;2023-11-19T07:56:18;12;10;
45440;PMS5003;31189;38.790;-77.084;2023-11-19T07:58:43;9;8;
45440;PMS5003;31189;38.790;-77.084;2023-11-19T08:01:09;11;9;
45440;PMS5003;31189;38.790;-77.084;2023-11-19T08:03:35;10;7;
45440;PMS5003;31189;38.790;-77.084;2023-11-19T08:06:00;9;7;
45440;PMS5003;31189;38.790;-77.084;2023-11-19T08:08:26;7;7;
45440;PMS5003;31189;38.790;-77.084;2023-11-19T08:10:52;7;7;
45440;PMS5003;31189;38.790;-77.084;2023-11-19T08:13:17;16;8;
45440;PMS5003;31189;38.790;-77.084;2023-11-19T08:15:43;13;8;
45440;PMS5003;31189;38.790;-77.084;2023-11-19T08:18:09;8;7;
45440;PMS5003;31189;38.790;-77.084;2023-11-19T08:20:34;7;7;
45440;PMS5003;31189;38.790;-77.084;2023-11-19T08:23:02;9;8;
45440;PMS5003;31189;38.790;-77.084;2023-11-19T08:25:26;9;6;
45440;PMS5003;31189;38.790;-77.084;2023-11-19T08:27:51;9;7;
45440;PMS5003;31189;38.790;-77.084;2023-11-19T08:30:18;7;6;
45440;PMS5003;31189;38.790;-77.084;2023-11-19T08:32:43;11;7;
45440;PMS5003;31189;38.790;-77.084;2023-11-19T08:35:09;8;5;
45440;PMS5003;31189;38.790;-77.084;2023-11-19T08:37:34;7;6;
45440;PMS5003;31189;38.790;-77.084;2023-11-19T08:40:00;9;5;
45440;PMS5003;31189;38.790;-77.084;2023-11-19T08:42:26;8;7;
45440;PMS5003;31189;38.790;-77.084;2023-11-19T08:44:51;7;7;
45440;PMS5003;31189;38.790;-77.084;2023-11-19T08:47:17;6;5;
45440;PMS5003;31189;38.790;-77.084;2023-11-19T08:49:42;8;6;
45440;PMS5003;31189;38.790;-77.084;2023-11-19T08:52:08;8;6;
45440;PMS5003;31189;38.790;-77.084;2023-11-19T08:54:34;7;4;
45440;PMS5003;31189;38.790;-77.084;2023-11-19T08:57:00;7;6;
45440;PMS5003;31189;38.790;-77.084;2023-11-19T08:59:25;6;6;
45440;PMS5003;31189;38.790;-77.084;2023-11-19T09:01:51;8;5;
45440;PMS5003;31189;38.790;-77.084;2023-11-19T09:04:17;5;5;
45440;PMS5003;31189;38.790;-77.084;2023-11-19T09:06:43;7;6;
45440;PMS5003;31189;38.790;-77.084;2023-11-19T09:09:08;5;5;
45440;PMS5003;31189;38.790;-77.084;2023-11-19T09:11:34;7;7;
45440;PMS5003;31189;38.790;-77.084;2023-11-19T09:14:00;5;5;
45440;PMS5003;31189;38.790;-77.084;2023-11-19T09:16:25;7;5;
45440;PMS5003;31189;38.790;-77.084;2023-11-19T09:18:51;9;7;
45440;PMS5003;31189;38.790;-77.084;2023-11-19T09:21:17;8;8;
45440;PMS5003;31189;38.790;-77.084;2023-11-19T09:23:43;5;5;
45440;PMS5003;31189;38.790;-77.084;2023-11-19T09:26:08;9;8;
45440;PMS5003;31189;38.790;-77.084;2023-11-19T09:28:34;6;6;
45440;PMS5003;31189;38.790;-77.084;2023-11-19T09:30:59;8;6;
45440;PMS5003;31189;38.790;-77.084;2023-11-19T09:33:25;6;6;
45440;PMS5003;31189;38.790;-77.084;2023-11-19T09:35:51;7;6;
45440;PMS5003;31189;38.790;-77.084;2023-11-19T09:38:16;9;9;
45440;PMS5003;31189;38.790;-77.084;2023-11-19T09:40:42;9;6;
45440;PMS5003;31189;38.790;-77.084;2023-11-19T09:43:08;9;5;
45440;PMS5003;31189;38.790;-77.084;2023-11-19T09:45:37;6;6;
45440;PMS5003;31189;38.790;-77.084;2023-11-19T09:47:59;8;7;
45440;PMS5003;31189;38.790;-77.084;2023-11-19T09:50:25;9;5;
45440;PMS5003;31189;38.790;-77.084;2023-11-19T09:52:50;5;5;
45440;PMS5003;31189;38.790;-77.084;2023-11-19T09:55:16;9;5;
45440;PMS5003;31189;38.790;-77.084;2023-11-19T09:57:42;7;6;
45440;PMS5003;31189;38.790;-77.084;2023-11-19T10:00:08;6;4;
45440;PMS5003;31189;38.790;-77.084;2023-11-19T10:02:33;7;6;
45440;PMS5003;31189;38.790;-77.084;2023-11-19T10:04:59;6;6;
45440;PMS5003;31189;38.790;-77.084;2023-11-19T10:07:24;7;5;
45440;PMS5003;31189;38.790;-77.084;2023-11-19T10:09:50;8;6;
45440;PMS5003;31189;38.790;-77.084;2023-11-19T10:12:16;6;6;
45440;PMS5003;31189;38.790;-77.084;2023-11-19T10:14:41;6;6;
45440;PMS5003;31189;38.790;-77.084;2023-11-19T10:17:07;11;8;
45440;PMS5003;31189;38.790;-77.084;2023-11-19T10:19:33;6;4;
45440;PMS5003;31189;38.790;-77.084;2023-11-19T10:22:01;6;6;
45440;PMS5003;31189;38.790;-77.084;2023-11-19T10:26:50;6;6;
45440;PMS5003;31189;38.790;-77.084;2023-11-19T10:29:16;7;6;
45440;PMS5003;31189;38.790;-77.084;2023-11-19T10:31:41;7;7;
45440;PMS5003;31189;38.790;-77.084;2023-11-19T10:36:38;7;6;
45440;PMS5003;31189;38.790;-77.084;2023-11-19T10:38:58;7;6;
45440;PMS5003;31189;38.790;-77.084;2023-11-19T10:41:26;5;5;
45440;PMS5003;31189;38.790;-77.084;2023-11-19T10:43:50;9;8;
45440;PMS5003;31189;38.790;-77.084;2023-11-19T10:46:15;8;5;
45440;PMS5003;31189;38.790;-77.084;2023-11-19T10:48:41;11;8;
45440;PMS5003;31189;38.790;-77.084;2023-11-19T10:51:07;7;6;
45440;PMS5003;31189;38.790;-77.084;2023-11-19T10:53:33;10;8;
45440;PMS5003;31189;38.790;-77.084;2023-11-19T10:55:58;9;7;
45440;PMS5003;31189;38.790;-77.084;2023-11-19T10:58:24;8;6;
45440;PMS5003;31189;38.790;-77.084;2023-11-19T11:00:51;9;6;
45440;PMS5003;31189;38.790;-77.084;2023-11-19T11:03:17;9;7;
45440;PMS5003;31189;38.790;-77.084;2023-11-19T11:05:41;7;7;
45440;PMS5003;31189;38.790;-77.084;2023-11-19T11:08:06;12;10;
45440;PMS5003;31189;38.790;-77.084;2023-11-19T11:10:33;10;9;
45440;PMS5003;31189;38.790;-77.084;2023-11-19T11:12:58;9;7;
45440;PMS5003;31189;38.790;-77.084;2023-11-19T11:15:24;7;6;
45440;PMS5003;31189;38.790;-77.084;2023-11-19T11:17:49;7;7;
45440;PMS5003;31189;38.790;-77.084;2023-11-19T11:20:15;9;7;
45440;PMS5003;31189;38.790;-77.084;2023-11-19T11:22:42;7;5;
45440;PMS5003;31189;38.790;-77.084;2023-11-19T11:25:11;11;9;
45440;PMS5003;31189;38.790;-77.084;2023-11-19T11:27:37;13;10;
45440;PMS5003;31189;38.790;-77.084;2023-11-19T11:29:59;14;10;
45440;PMS5003;31189;38.790;-77.084;2023-11-19T11:32:25;8;7;
45440;PMS5003;31189;38.790;-77.084;2023-11-19T11:34:53;10;8;
45440;PMS5003;31189;38.790;-77.084;2023-11-19T11:37:17;8;7;
45440;PMS5003;31189;38.790;-77.084;2023-11-19T11:39:40;9;8;
45440;PMS5003;31189;38.790;-77.084;2023-11-19T11:46:57;5;5;
45440;PMS5003;31189;38.790;-77.084;2023-11-19T11:49:26;8;6;
45440;PMS5003;31189;38.790;-77.084;2023-11-19T11:56:40;9;7;
45440;PMS5003;31189;38.790;-77.084;2023-11-19T11:59:07;8;6;
45440;PMS5003;31189;38.790;-77.084;2023-11-19T12:01:31;5;5;
45440;PMS5003;31189;38.790;-77.084;2023-11-19T12:03:57;8;6;
45440;PMS5003;31189;38.790;-77.084;2023-11-19T12:06:23;10;7;
45440;PMS5003;31189;38.790;-77.084;2023-11-19T12:08:49;6;6;
45440;PMS5003;31189;38.790;-77.084;2023-11-19T12:11:14;11;10;
45440;PMS5003;31189;38.790;-77.084;2023-11-19T12:13:47;7;6;
45440;PMS5003;31189;38.790;-77.084;2023-11-19T12:16:07;8;7;
45440;PMS5003;31189;38.790;-77.084;2023-11-19T12:18:31;11;8;
45440;PMS5003;31189;38.790;-77.084;2023-11-19T12:20:57;7;7;
45440;PMS5003;31189;38.790;-77.084;2023-11-19T12:23:23;6;6;
45440;PMS5003;31189;38.790;-77.084;2023-11-19T12:25:49;8;7;
45440;PMS5003;31189;38.790;-77.084;2023-11-19T12:28:15;10;7;
45440;PMS5003;31189;38.790;-77.084;2023-11-19T12:30:40;8;7;
45440;PMS5003;31189;38.790;-77.084;2023-11-19T12:33:08;12;9;
45440;PMS5003;31189;38.790;-77.084;2023-11-19T12:35:31;8;8;
45440;PMS5003;31189;38.790;-77.084;2023-11-19T12:37:57;8;8;
45440;PMS5003;31189;38.790;-77.084;2023-11-19T12:40:23;11;8;
45440;PMS5003;31189;38.790;-77.084;2023-11-19T12:42:49;9;6;
45440;PMS5003;31189;38.790;-77.084;2023-11-19T12:45:14;10;9;
45440;PMS5003;31189;38.790;-77.084;2023-11-19T12:47:40;11;7;
45440;PMS5003;31189;38.790;-77.084;2023-11-19T12:50:06;12;12;
45440;PMS5003;31189;38.790;-77.084;2023-11-19T12:52:31;12;10;
45440;PMS5003;31189;38.790;-77.084;2023-11-19T12:54:57;9;9;
45440;PMS5003;31189;38.790;-77.084;2023-11-19T12:59:55;14;12;
45440;PMS5003;31189;38.790;-77.084;2023-11-19T13:02:14;19;9;
45440;PMS5003;31189;38.790;-77.084;2023-11-19T13:04:39;19;8;
45440;PMS5003;31189;38.790;-77.084;2023-11-19T13:07:05;13;13;
45440;PMS5003;31189;38.790;-77.084;2023-11-19T13:09:30;9;9;
45440;PMS5003;31189;38.790;-77.084;2023-11-19T13:11:56;15;10;
45440;PMS5003;31189;38.790;-77.084;2023-11-19T13:14:22;11;8;
45440;PMS5003;31189;38.790;-77.084;2023-11-19T13:16:47;8;8;
45440;PMS5003;31189;38.790;-77.084;2023-11-19T13:19:13;8;6;
45440;PMS5003;31189;38.790;-77.084;2023-11-19T13:21:39;8;8;
45440;PMS5003;31189;38.790;-77.084;2023-11-19T13:24:05;9;7;
45440;PMS5003;31189;38.790;-77.084;2023-11-19T13:26:30;8;7;
45440;PMS5003;31189;38.790;-77.084;2023-11-19T13:28:56;6;6;
45440;PMS5003;31189;38.790;-77.084;2023-11-19T13:31:22;6;6;
45440;PMS5003;31189;38.790;-77.084;2023-11-19T13:33:47;7;7;
45440;PMS5003;31189;38.790;-77.084;2023-11-19T13:36:13;6;5;
45440;PMS5003;31189;38.790;-77.084;2023-11-19T13:38:39;4;4;
45440;PMS5003;31189;38.790;-77.084;2023-11-19T13:41:04;5;4;
45440;PMS5003;31189;38.790;-77.084;2023-11-19T13:43:30;3;3;
45440;PMS5003;31189;38.790;-77.084;2023-11-19T13:45:56;5;5;
45440;PMS5003;31189;38.790;-77.084;2023-11-19T13:48:21;6;5;
45440;PMS5003;31189;38.790;-77.084;2023-11-19T13:50:47;6;6;
45440;PMS5003;31189;38.790;-77.084;2023-11-19T13:53:12;8;7;
45440;PMS5003;31189;38.790;-77.084;2023-11-19T13:55:38;6;5;
45440;PMS5003;31189;38.790;-77.084;2023-11-19T13:58:04;7;6;
45440;PMS5003;31189;38.790;-77.084;2023-11-19T14:00:29;5;4;
45440;PMS5003;31189;38.790;-77.084;2023-11-19T14:02:55;5;5;
45440;PMS5003;31189;38.790;-77.084;2023-11-19T14:05:21;5;5;
45440;PMS5003;31189;38.790;-77.084;2023-11-19T14:07:46;8;6;
45440;PMS5003;31189;38.790;-77.084;2023-11-19T14:10:12;5;4;
45440;PMS5003;31189;38.790;-77.084;2023-11-19T14:12:38;4;4;
45440;PMS5003;31189;38.790;-77.084;2023-11-19T14:15:04;6;4;
45440;PMS5003;31189;38.790;-77.084;2023-11-19T14:17:29;5;5;
45440;PMS5003;31189;38.790;-77.084;2023-11-19T14:19:55;4;4;
45440;PMS5003;31189;38.790;-77.084;2023-11-19T14:22:20;3;3;
45440;PMS5003;31189;38.790;-77.084;2023-11-19T14:24:46;5;4;
45440;PMS5003;31189;38.790;-77.084;2023-11-19T14:27:11;3;3;
45440;PMS5003;31189;38.790;-77.084;2023-11-19T14:29:37;4;4;
45440;PMS5003;31189;38.790;-77.084;2023-11-19T14:32:03;5;4;
45440;PMS5003;31189;38.790;-77.084;2023-11-19T14:34:28;2;2;
45440;PMS5003;31189;38.790;-77.084;2023-11-19T14:36:54;5;4;
45440;PMS5003;31189;38.790;-77.084;2023-11-19T14:39:20;3;2;
45440;PMS5003;31189;38.790;-77.084;2023-11-19T14:41:45;3;3;
45440;PMS5003;31189;38.790;-77.084;2023-11-19T14:44:11;5;4;
45440;PMS5003;31189;38.790;-77.084;2023-11-19T14:46:36;3;3;
45440;PMS5003;31189;38.790;-77.084;2023-11-19T14:49:02;5;4;
45440;PMS5003;31189;38.790;-77.084;2023-11-19T14:51:28;5;5;
45440;PMS5003;31189;38.790;-77.084;2023-11-19T14:53:53;5;4;
45440;PMS5003;31189;38.790;-77.084;2023-11-19T14:56:19;5;5;
45440;PMS5003;31189;38.790;-77.084;2023-11-19T14:58:45;7;4;
45440;PMS5003;31189;38.790;-77.084;2023-11-19T15:01:11;4;3;
45440;PMS5003;31189;38.790;-77.084;2023-11-19T15:03:36;4;4;
45440;PMS5003;31189;38.790;-77.084;2023-11-19T15:06:01;6;5;
45440;PMS5003;31189;38.790;-77.084;2023-11-19T15:08:27;3;3;
45440;PMS5003;31189;38.790;-77.084;2023-11-19T15:10:53;5;5;
45440;PMS5003;31189;38.790;-77.084;2023-11-19T15:13:18;4;4;
45440;PMS5003;31189;38.790;-77.084;2023-11-19T15:15:44;4;4;
45440;PMS5003;31189;38.790;-77.084;2023-11-19T15:18:10;5;5;
45440;PMS5003;31189;38.790;-77.084;2023-11-19T15:20:35;6;6;
45440;PMS5003;31189;38.790;-77.084;2023-11-19T15:23:01;5;4;
45440;PMS5003;31189;38.790;-77.084;2023-11-19T15:25:27;4;4;
45440;PMS5003;31189;38.790;-77.084;2023-11-19T15:27:52;6;5;
45440;PMS5003;31189;38.790;-77.084;2023-11-19T15:30:18;5;5;
45440;PMS5003;31189;38.790;-77.084;2023-11-19T15:32:44;5;4;
45440;PMS5003;31189;38.790;-77.084;2023-11-19T15:35:09;6;5;
45440;PMS5003;31189;38.790;-77.084;2023-11-19T15:37:35;5;5;
45440;PMS5003;31189;38.790;-77.084;2023-11-19T15:40:00;6;6;
45440;PMS5003;31189;38.790;-77.084;2023-11-19T15:42:26;4;4;
45440;PMS5003;31189;38.790;-77.084;2023-11-19T15:44:52;6;6;
45440;PMS5003;31189;38.790;-77.084;2023-11-19T15:47:17;5;3;
45440;PMS5003;31189;38.790;-77.084;2023-11-19T15:49:43;7;6;
45440;PMS5003;31189;38.790;-77.084;2023-11-19T15:52:09;6;6;
45440;PMS5003;31189;38.790;-77.084;2023-11-19T15:54:34;5;5;
45440;PMS5003;31189;38.790;-77.084;2023-11-19T15:57:00;8;5;
45440;PMS5003;31189;38.790;-77.084;2023-11-19T15:59:26;6;5;
45440;PMS5003;31189;38.790;-77.084;2023-11-19T16:01:51;8;5;
45440;PMS5003;31189;38.790;-77.084;2023-11-19T16:04:17;8;8;
45440;PMS5003;31189;38.790;-77.084;2023-11-19T16:06:42;6;6;
45440;PMS5003;31189;38.790;-77.084;2023-11-19T16:09:08;6;5;
45440;PMS5003;31189;38.790;-77.084;2023-11-19T16:11:34;8;6;
45440;PMS5003;31189;38.790;-77.084;2023-11-19T16:13:59;10;4;
45440;PMS5003;31189;38.790;-77.084;2023-11-19T16:16:24;8;5;
45440;PMS5003;31189;38.790;-77.084;2023-11-19T16:18:50;8;6;